Wetterdaten: Woche 12.12.16 - 18.12.16 (KW50)
Datum Zeit Temperatur Luftfeuchte Luftdruck Niederschlag Windrichtung Sonnenschein Solar Wind
12.12.2016 00:00 1,3 C 97 % 1025,0 hPa 0,0 l/m S-SW 0,00 h 0 W/m 8,4 km/h (2 Bft)
12.12.2016 01:00 1,3 C 97 % 1024,8 hPa 0,0 l/m S-SW 0,00 h 0 W/m 6,0 km/h (2 Bft)
12.12.2016 02:00 1,2 C 97 % 1025,0 hPa 0,0 l/m S-SW 0,00 h 0 W/m 2,4 km/h (1 Bft)
12.12.2016 03:00 1,2 C 98 % 1025,0 hPa 0,0 l/m S-SW 0,00 h 0 W/m 3,5 km/h (1 Bft)
12.12.2016 04:00 0,9 C 97 % 1025,1 hPa 0,0 l/m N 0,00 h 0 W/m 0,9 km/h (0 Bft)
12.12.2016 05:00 0,7 C 98 % 1025,2 hPa 0,0 l/m S-SW 0,00 h 0 W/m 4,8 km/h (1 Bft)
12.12.2016 06:00 0,9 C 98 % 1025,5 hPa 0,0 l/m S-SW 0,00 h 0 W/m 3,6 km/h (1 Bft)
12.12.2016 07:00 1,2 C 98 % 1025,8 hPa 0,0 l/m W-SW 0,00 h 0 W/m 7,1 km/h (2 Bft)
12.12.2016 08:00 1,3 C 98 % 1026,2 hPa 0,0 l/m SW 0,00 h 15 W/m 7,9 km/h (2 Bft)
12.12.2016 09:00 1,5 C 98 % 1026,7 hPa 0,0 l/m SW 0,00 h 63 W/m 8,4 km/h (2 Bft)
12.12.2016 10:00 2,1 C 99 % 1027,1 hPa 0,0 l/m SW 0,00 h 102 W/m 9,4 km/h (2 Bft)
12.12.2016 11:00 3,1 C 99 % 1026,9 hPa 0,0 l/m SW 0,08 h 153 W/m 2,8 km/h (1 Bft)
12.12.2016 12:00 5,1 C 94 % 1026,5 hPa 0,0 l/m N 1,00 h 313 W/m 0,7 km/h (0 Bft)
12.12.2016 13:00 5,7 C 87 % 1026,4 hPa 0,0 l/m SW 0,17 h 98 W/m 2,3 km/h (1 Bft)
12.12.2016 14:00 5,6 C 85 % 1026,1 hPa 0,0 l/m N 0,25 h 95 W/m 0,0 km/h (0 Bft)
12.12.2016 15:00 5,0 C 86 % 1026,0 hPa 0,0 l/m N 0,00 h 38 W/m 1,9 km/h (1 Bft)
12.12.2016 16:00 4,0 C 86 % 1026,3 hPa 0,0 l/m N 0,08 h 10 W/m 0,0 km/h (0 Bft)
12.12.2016 17:00 1,9 C 87 % 1026,4 hPa 0,0 l/m N 0,00 h 0 W/m 0,0 km/h (0 Bft)
12.12.2016 18:00 0,7 C 90 % 1026,6 hPa 0,0 l/m N 0,00 h 0 W/m 0,0 km/h (0 Bft)
12.12.2016 19:00 -0,1 C 91 % 1026,7 hPa 0,0 l/m N 0,00 h 0 W/m 0,0 km/h (0 Bft)
12.12.2016 20:00 -0,8 C 92 % 1026,6 hPa 0,0 l/m N 0,00 h 0 W/m 0,0 km/h (0 Bft)
12.12.2016 21:00 -1,3 C 93 % 1026,8 hPa 0,0 l/m N 0,00 h 0 W/m 0,0 km/h (0 Bft)
12.12.2016 22:00 -1,8 C 94 % 1026,8 hPa 0,0 l/m SW 0,00 h 0 W/m 1,2 km/h (1 Bft)
12.12.2016 23:00 -2,0 C 94 % 1026,7 hPa 0,0 l/m N 0,00 h 0 W/m 0,0 km/h (0 Bft)
13.12.2016 00:00 -2,4 C 94 % 1026,8 hPa 0,0 l/m N 0,00 h 0 W/m 0,0 km/h (0 Bft)
13.12.2016 01:00 -2,8 C 94 % 1026,8 hPa 0,0 l/m SW 0,00 h 0 W/m 0,7 km/h (0 Bft)
13.12.2016 02:00 -3,3 C 95 % 1026,7 hPa 0,0 l/m N 0,00 h 0 W/m 0,4 km/h (0 Bft)
13.12.2016 03:00 -3,8 C 95 % 1026,7 hPa 0,0 l/m SW 0,00 h 0 W/m 1,9 km/h (1 Bft)
13.12.2016 04:00 -4,2 C 95 % 1026,5 hPa 0,0 l/m N 0,00 h 0 W/m 0,0 km/h (0 Bft)
13.12.2016 05:00 -4,7 C 95 % 1026,5 hPa 0,0 l/m N 0,00 h 0 W/m 0,0 km/h (0 Bft)
13.12.2016 06:00 -4,9 C 95 % 1026,6 hPa 0,0 l/m N 0,00 h 0 W/m 0,0 km/h (0 Bft)
13.12.2016 07:00 -5,2 C 95 % 1027,0 hPa 0,0 l/m N 0,00 h 0 W/m 0,0 km/h (0 Bft)
13.12.2016 08:00 -4,9 C 96 % 1027,4 hPa 0,0 l/m N 0,00 h 19 W/m 0,0 km/h (0 Bft)
13.12.2016 09:00 -4,0 C 96 % 1027,9 hPa 0,0 l/m N 0,00 h 58 W/m 0,0 km/h (0 Bft)
13.12.2016 10:00 -2,4 C 97 % 1027,8 hPa 0,0 l/m SW 0,00 h 98 W/m 3,9 km/h (1 Bft)
13.12.2016 11:00 -1,4 C 98 % 1027,6 hPa 0,0 l/m SW 0,00 h 121 W/m 8,3 km/h (2 Bft)
13.12.2016 12:00 -0,8 C 98 % 1027,2 hPa 0,0 l/m S-SW 0,00 h 103 W/m 9,5 km/h (2 Bft)
13.12.2016 13:00 -0,3 C 99 % 1027,1 hPa 0,0 l/m S-SW 0,00 h 83 W/m 4,4 km/h (1 Bft)
13.12.2016 14:00 0,1 C 99 % 1027,0 hPa 0,0 l/m S-SW 0,00 h 65 W/m 2,1 km/h (1 Bft)
13.12.2016 15:00 0,2 C 99 % 1027,0 hPa 0,0 l/m S-SW 0,00 h 23 W/m 5,2 km/h (1 Bft)
13.12.2016 16:00 -0,1 C 99 % 1027,0 hPa 0,0 l/m S-SW 0,00 h 8 W/m 6,0 km/h (2 Bft)
13.12.2016 17:00 -0,1 C 99 % 1027,2 hPa 0,0 l/m S-SW 0,00 h 0 W/m 6,4 km/h (2 Bft)
13.12.2016 18:00 -0,2 C 99 % 1027,1 hPa 0,0 l/m S-SW 0,00 h 0 W/m 6,2 km/h (2 Bft)
13.12.2016 19:00 -0,4 C 99 % 1027,1 hPa 0,0 l/m S-SW 0,00 h 0 W/m 10,1 km/h (2 Bft)
13.12.2016 20:00 -0,8 C 99 % 1027,2 hPa 0,0 l/m S-SW 0,00 h 0 W/m 5,6 km/h (1 Bft)
13.12.2016 21:00 -1,0 C 99 % 1027,0 hPa 0,0 l/m S-SW 0,00 h 0 W/m 8,3 km/h (2 Bft)
13.12.2016 22:00 -1,1 C 99 % 1027,0 hPa 0,0 l/m S-SW 0,00 h 0 W/m 7,6 km/h (2 Bft)
13.12.2016 23:00 -1,2 C 99 % 1027,0 hPa 0,0 l/m S-SW 0,00 h 0 W/m 9,0 km/h (2 Bft)
14.12.2016 00:00 -1,0 C 99 % 1026,8 hPa 0,0 l/m S-SW 0,00 h 0 W/m 4,0 km/h (1 Bft)
14.12.2016 01:00 -0,8 C 99 % 1026,3 hPa 0,0 l/m S-SW 0,00 h 0 W/m 7,2 km/h (2 Bft)
14.12.2016 02:00 -0,6 C 99 % 1026,1 hPa 0,0 l/m S-SW 0,00 h 0 W/m 4,4 km/h (1 Bft)
14.12.2016 03:00 -0,5 C 99 % 1026,0 hPa 0,0 l/m N 0,00 h 0 W/m 0,0 km/h (0 Bft)
14.12.2016 04:00 -0,3 C 100 % 1025,6 hPa 0,0 l/m S-SW 0,00 h 0 W/m 2,5 km/h (1 Bft)
14.12.2016 05:00 -0,1 C 99 % 1025,4 hPa 0,2 l/m N 0,00 h 0 W/m 0,8 km/h (0 Bft)
14.12.2016 06:00 0,1 C 100 % 1025,4 hPa 0,0 l/m N 0,00 h 0 W/m 0,0 km/h (0 Bft)
14.12.2016 07:00 0,2 C 100 % 1025,5 hPa 0,0 l/m N 0,00 h 0 W/m 0,0 km/h (0 Bft)
14.12.2016 08:00 0,2 C 99 % 1025,7 hPa 0,0 l/m N 0,00 h 8 W/m 0,0 km/h (0 Bft)
14.12.2016 09:00 0,4 C 100 % 1025,9 hPa 0,4 l/m N 0,00 h 43 W/m 0,0 km/h (0 Bft)
14.12.2016 10:00 0,9 C 100 % 1026,1 hPa 0,0 l/m N 0,00 h 83 W/m 0,0 km/h (0 Bft)
14.12.2016 11:00 1,6 C 100 % 1025,8 hPa 0,0 l/m N 0,17 h 150 W/m 0,3 km/h (0 Bft)
14.12.2016 12:00 3,3 C 100 % 1025,3 hPa 0,2 l/m S-SW 1,00 h 257 W/m 1,7 km/h (1 Bft)
14.12.2016 13:00 5,1 C 94 % 1024,9 hPa 0,0 l/m S-SW 1,00 h 248 W/m 0,8 km/h (0 Bft)
14.12.2016 14:00 6,3 C 82 % 1024,4 hPa 0,0 l/m N 0,67 h 148 W/m 0,7 km/h (0 Bft)
14.12.2016 15:00 5,4 C 85 % 1024,4 hPa 0,0 l/m N 0,00 h 34 W/m 0,0 km/h (0 Bft)
14.12.2016 16:00 3,7 C 90 % 1024,6 hPa 0,0 l/m N 0,08 h 9 W/m 0,1 km/h (0 Bft)
14.12.2016 17:00 2,3 C 90 % 1025,0 hPa 0,0 l/m S-SW 0,00 h 0 W/m 1,6 km/h (1 Bft)
14.12.2016 18:00 1,4 C 92 % 1025,2 hPa 0,0 l/m N 0,00 h 0 W/m 0,4 km/h (0 Bft)
14.12.2016 19:00 0,9 C 94 % 1025,4 hPa 0,0 l/m S-SW 0,00 h 0 W/m 0,9 km/h (0 Bft)
14.12.2016 20:00 0,4 C 94 % 1025,5 hPa 0,0 l/m S-SW 0,00 h 0 W/m 2,0 km/h (1 Bft)
14.12.2016 21:00 0,2 C 95 % 1025,5 hPa 0,0 l/m S-SW 0,00 h 0 W/m 1,6 km/h (1 Bft)
14.12.2016 22:00 0,1 C 95 % 1025,7 hPa 0,0 l/m SW 0,00 h 0 W/m 5,1 km/h (1 Bft)
14.12.2016 23:00 -0,1 C 95 % 1026,0 hPa 0,0 l/m N 0,00 h 0 W/m 0,3 km/h (0 Bft)
15.12.2016 00:00 -0,3 C 96 % 1025,9 hPa 0,0 l/m SW 0,00 h 0 W/m 5,1 km/h (1 Bft)
15.12.2016 01:00 -0,2 C 96 % 1025,9 hPa 0,0 l/m SW 0,00 h 0 W/m 5,5 km/h (1 Bft)
15.12.2016 02:00 -0,3 C 97 % 1026,1 hPa 0,0 l/m W-SW 0,00 h 0 W/m 5,7 km/h (1 Bft)
15.12.2016 03:00 -0,5 C 97 % 1025,9 hPa 0,0 l/m W-SW 0,00 h 0 W/m 6,3 km/h (2 Bft)
15.12.2016 04:00 -0,6 C 97 % 1025,9 hPa 0,0 l/m W-SW 0,00 h 0 W/m 7,2 km/h (2 Bft)
15.12.2016 05:00 -0,8 C 97 % 1025,8 hPa 0,0 l/m W-SW 0,00 h 0 W/m 3,6 km/h (1 Bft)
15.12.2016 06:00 -1,4 C 97 % 1026,1 hPa 0,0 l/m N 0,00 h 0 W/m 0,0 km/h (0 Bft)
15.12.2016 07:00 -1,9 C 97 % 1026,4 hPa 0,0 l/m N 0,00 h 5 W/m 0,3 km/h (0 Bft)
15.12.2016 08:00 -1,4 C 98 % 1026,8 hPa 0,0 l/m W-SW 0,08 h 20 W/m 3,6 km/h (1 Bft)
15.12.2016 09:00 -0,6 C 98 % 1027,2 hPa 0,0 l/m W-SW 0,00 h 46 W/m 6,0 km/h (2 Bft)
15.12.2016 10:00 -0,1 C 98 % 1027,3 hPa 0,0 l/m N-NO 0,00 h 57 W/m 7,0 km/h (2 Bft)
15.12.2016 11:00 0,1 C 98 % 1027,2 hPa 0,0 l/m NO 0,00 h 68 W/m 5,3 km/h (1 Bft)
15.12.2016 12:00 0,3 C 98 % 1026,7 hPa 0,0 l/m O-NO 0,00 h 78 W/m 7,0 km/h (2 Bft)
15.12.2016 13:00 0,4 C 98 % 1026,1 hPa 0,0 l/m O 0,00 h 71 W/m 7,6 km/h (2 Bft)
15.12.2016 14:00 0,5 C 98 % 1026,0 hPa 0,0 l/m O 0,00 h 43 W/m 8,6 km/h (2 Bft)
15.12.2016 15:00 0,5 C 99 % 1026,3 hPa 0,0 l/m O 0,00 h 16 W/m 6,6 km/h (2 Bft)
15.12.2016 16:00 0,5 C 99 % 1026,5 hPa 0,0 l/m O-NO 0,00 h 5 W/m 7,4 km/h (2 Bft)
15.12.2016 17:00 0,4 C 99 % 1026,7 hPa 0,0 l/m O 0,00 h 0 W/m 6,3 km/h (2 Bft)
15.12.2016 18:00 0,6 C 99 % 1026,7 hPa 0,0 l/m O 0,00 h 0 W/m 1,6 km/h (1 Bft)
15.12.2016 19:00 0,7 C 99 % 1026,8 hPa 0,0 l/m N 0,00 h 0 W/m 0,0 km/h (0 Bft)
15.12.2016 20:00 0,5 C 99 % 1026,8 hPa 0,0 l/m O 0,00 h 0 W/m 1,6 km/h (1 Bft)
15.12.2016 21:00 0,4 C 99 % 1026,9 hPa 0,0 l/m O 0,00 h 0 W/m 0,3 km/h (0 Bft)
15.12.2016 22:00 0,2 C 99 % 1027,0 hPa 0,0 l/m N 0,00 h 0 W/m 0,9 km/h (0 Bft)
15.12.2016 23:00 0,2 C 99 % 1027,0 hPa 0,0 l/m N 0,00 h 0 W/m 0,0 km/h (0 Bft)
16.12.2016 00:00 0,3 C 99 % 1027,0 hPa 0,0 l/m O 0,00 h 0 W/m 3,3 km/h (1 Bft)
16.12.2016 01:00 0,2 C 99 % 1026,9 hPa 0,0 l/m O 0,00 h 0 W/m 6,0 km/h (2 Bft)
16.12.2016 02:00 -0,1 C 99 % 1027,2 hPa 0,0 l/m O 0,00 h 0 W/m 2,9 km/h (1 Bft)
16.12.2016 03:00 -0,1 C 99 % 1027,4 hPa 0,0 l/m O 0,00 h 0 W/m 2,7 km/h (1 Bft)
16.12.2016 04:00 -0,3 C 99 % 1027,5 hPa 0,0 l/m O 0,00 h 0 W/m 5,1 km/h (1 Bft)
16.12.2016 05:00 -0,5 C 99 % 1027,7 hPa 0,0 l/m O 0,00 h 0 W/m 5,3 km/h (1 Bft)
16.12.2016 06:00 -0,8 C 98 % 1028,2 hPa 0,0 l/m O 0,00 h 0 W/m 2,3 km/h (1 Bft)
16.12.2016 07:00 -0,9 C 98 % 1028,4 hPa 0,0 l/m O 0,00 h 0 W/m 3,3 km/h (1 Bft)
16.12.2016 08:00 -1,1 C 98 % 1029,1 hPa 0,0 l/m O 0,00 h 13 W/m 5,1 km/h (1 Bft)
16.12.2016 09:00 -1,0 C 98 % 1029,4 hPa 0,0 l/m O 0,00 h 39 W/m 6,7 km/h (2 Bft)
16.12.2016 10:00 -0,9 C 98 % 1029,8 hPa 0,0 l/m O 0,00 h 65 W/m 7,0 km/h (2 Bft)
16.12.2016 11:00 -0,8 C 98 % 1029,8 hPa 0,0 l/m O 0,00 h 93 W/m 6,3 km/h (2 Bft)
16.12.2016 12:00 -0,7 C 98 % 1029,6 hPa 0,0 l/m O 0,00 h 96 W/m 6,4 km/h (2 Bft)
16.12.2016 13:00 -0,4 C 97 % 1029,5 hPa 0,0 l/m O 0,00 h 78 W/m 5,9 km/h (2 Bft)
16.12.2016 14:00 -0,1 C 97 % 1029,6 hPa 0,0 l/m O 0,00 h 59 W/m 7,6 km/h (2 Bft)
16.12.2016 15:00 0,1 C 97 % 1030,1 hPa 0,0 l/m O 0,00 h 24 W/m 8,0 km/h (2 Bft)
16.12.2016 16:00 0,1 C 96 % 1030,6 hPa 0,0 l/m O-NO 0,00 h 7 W/m 6,0 km/h (2 Bft)
16.12.2016 17:00 -0,2 C 96 % 1031,4 hPa 0,0 l/m O 0,00 h 0 W/m 6,8 km/h (2 Bft)
16.12.2016 18:00 -0,3 C 96 % 1032,0 hPa 0,0 l/m O 0,00 h 0 W/m 6,1 km/h (2 Bft)
16.12.2016 19:00 -0,4 C 96 % 1032,7 hPa 0,0 l/m N 0,00 h 0 W/m 1,3 km/h (1 Bft)
16.12.2016 20:00 -0,6 C 97 % 1033,2 hPa 0,0 l/m O 0,00 h 0 W/m 0,7 km/h (0 Bft)
16.12.2016 21:00 -0,8 C 97 % 1033,8 hPa 0,0 l/m N 0,00 h 0 W/m 0,9 km/h (0 Bft)
16.12.2016 22:00 -1,1 C 97 % 1034,2 hPa 0,0 l/m O 0,00 h 0 W/m 5,1 km/h (1 Bft)
16.12.2016 23:00 -1,3 C 97 % 1034,6 hPa 0,0 l/m O-SO 0,00 h 0 W/m 4,4 km/h (1 Bft)
17.12.2016 00:00 -1,6 C 97 % 1034,9 hPa 0,0 l/m O-SO 0,00 h 0 W/m 5,2 km/h (1 Bft)
17.12.2016 01:00 -2,0 C 98 % 1035,1 hPa 0,0 l/m SW 0,00 h 0 W/m 7,9 km/h (2 Bft)
17.12.2016 02:00 -2,2 C 98 % 1035,5 hPa 0,0 l/m SW 0,00 h 0 W/m 9,1 km/h (2 Bft)
17.12.2016 03:00 -2,1 C 98 % 1035,9 hPa 0,0 l/m SW 0,00 h 0 W/m 8,7 km/h (2 Bft)
17.12.2016 04:00 -1,7 C 98 % 1036,0 hPa 0,0 l/m SW 0,00 h 0 W/m 9,7 km/h (2 Bft)
17.12.2016 05:00 -1,6 C 98 % 1036,0 hPa 0,0 l/m SW 0,00 h 0 W/m 10,9 km/h (2 Bft)
17.12.2016 06:00 -1,7 C 98 % 1036,5 hPa 0,0 l/m W-SW 0,00 h 0 W/m 8,4 km/h (2 Bft)
17.12.2016 07:00 -2,0 C 98 % 1037,2 hPa 0,0 l/m W-SW 0,00 h 0 W/m 7,8 km/h (2 Bft)
17.12.2016 08:00 -2,1 C 98 % 1037,7 hPa 0,0 l/m W-SW 0,00 h 10 W/m 7,2 km/h (2 Bft)
17.12.2016 09:00 -1,8 C 98 % 1038,1 hPa 0,0 l/m SW 0,00 h 38 W/m 9,8 km/h (2 Bft)
17.12.2016 10:00 -1,4 C 99 % 1038,5 hPa 0,0 l/m SW 0,00 h 80 W/m 8,9 km/h (2 Bft)
17.12.2016 11:00 -1,0 C 99 % 1038,7 hPa 0,0 l/m SW 0,00 h 101 W/m 5,6 km/h (1 Bft)
17.12.2016 12:00 -0,6 C 99 % 1038,5 hPa 0,0 l/m SW 0,00 h 134 W/m 1,7 km/h (1 Bft)
17.12.2016 13:00 -0,2 C 99 % 1038,4 hPa 0,0 l/m SW 0,00 h 90 W/m 0,5 km/h (0 Bft)
17.12.2016 14:00 -0,1 C 99 % 1038,3 hPa 0,0 l/m SW 0,00 h 63 W/m 2,9 km/h (1 Bft)
17.12.2016 15:00 0,1 C 99 % 1038,4 hPa 0,0 l/m N 0,00 h 31 W/m 3,3 km/h (1 Bft)
17.12.2016 16:00 -0,1 C 99 % 1038,6 hPa 0,0 l/m N 0,00 h 7 W/m 0,0 km/h (0 Bft)
17.12.2016 17:00 -0,1 C 99 % 1038,6 hPa 0,0 l/m N 0,00 h 0 W/m 0,0 km/h (0 Bft)
17.12.2016 18:00 0,1 C 99 % 1038,5 hPa 0,0 l/m N 0,00 h 0 W/m 0,0 km/h (0 Bft)
17.12.2016 19:00 0,1 C 99 % 1038,5 hPa 0,0 l/m N 0,00 h 0 W/m 0,0 km/h (0 Bft)
17.12.2016 20:00 0,3 C 99 % 1038,4 hPa 0,0 l/m N 0,00 h 0 W/m 0,0 km/h (0 Bft)
17.12.2016 21:00 0,5 C 99 % 1038,5 hPa 0,0 l/m N 0,00 h 0 W/m 0,0 km/h (0 Bft)
17.12.2016 22:00 0,4 C 99 % 1038,3 hPa 0,0 l/m N 0,00 h 0 W/m 0,0 km/h (0 Bft)
17.12.2016 23:00 0,4 C 99 % 1038,1 hPa 0,0 l/m N 0,00 h 0 W/m 0,0 km/h (0 Bft)
18.12.2016 00:00 0,5 C 99 % 1037,5 hPa 0,0 l/m N 0,00 h 0 W/m 0,4 km/h (0 Bft)
18.12.2016 01:00 0,4 C 99 % 1037,0 hPa 0,0 l/m N 0,00 h 0 W/m 0,0 km/h (0 Bft)
18.12.2016 02:00 0,4 C 99 % 1036,6 hPa 0,0 l/m N 0,00 h 0 W/m 0,7 km/h (0 Bft)
18.12.2016 03:00 0,3 C 99 % 1036,5 hPa 0,0 l/m N 0,00 h 0 W/m 0,0 km/h (0 Bft)
18.12.2016 04:00 0,4 C 99 % 1036,2 hPa 0,0 l/m N 0,00 h 0 W/m 0,0 km/h (0 Bft)
18.12.2016 05:00 0,3 C 99 % 1035,8 hPa 0,0 l/m N 0,00 h 0 W/m 0,0 km/h (0 Bft)
18.12.2016 06:00 0,3 C 99 % 1035,6 hPa 0,0 l/m SW 0,00 h 0 W/m 1,6 km/h (1 Bft)
18.12.2016 07:00 0,2 C 99 % 1035,6 hPa 0,0 l/m SW 0,00 h 0 W/m 3,2 km/h (1 Bft)
18.12.2016 08:00 0,2 C 99 % 1035,8 hPa 0,0 l/m SW 0,00 h 14 W/m 1,1 km/h (0 Bft)
18.12.2016 09:00 0,3 C 99 % 1035,5 hPa 0,0 l/m SW 0,00 h 44 W/m 7,6 km/h (2 Bft)
18.12.2016 10:00 0,5 C 99 % 1035,5 hPa 0,0 l/m SW 0,00 h 81 W/m 7,9 km/h (2 Bft)
18.12.2016 11:00 1,0 C 99 % 1035,1 hPa 0,0 l/m SW 0,00 h 122 W/m 6,3 km/h (2 Bft)
18.12.2016 12:00 1,5 C 99 % 1034,6 hPa 0,0 l/m N 0,00 h 88 W/m 0,4 km/h (0 Bft)
18.12.2016 13:00 1,9 C 99 % 1033,8 hPa 0,0 l/m SW 0,00 h 77 W/m 2,4 km/h (1 Bft)
18.12.2016 14:00 2,1 C 98 % 1033,2 hPa 0,0 l/m SW 0,00 h 46 W/m 1,9 km/h (1 Bft)
18.12.2016 15:00 2,2 C 98 % 1032,8 hPa 0,0 l/m N 0,00 h 15 W/m 0,0 km/h (0 Bft)
18.12.2016 16:00 2,1 C 98 % 1032,5 hPa 0,0 l/m SW 0,00 h 5 W/m 0,8 km/h (0 Bft)
18.12.2016 17:00 2,0 C 98 % 1031,9 hPa 0,0 l/m SW 0,00 h 0 W/m 3,1 km/h (1 Bft)
18.12.2016 18:00 1,8 C 98 % 1031,2 hPa 0,2 l/m N 0,00 h 0 W/m 1,7 km/h (1 Bft)
18.12.2016 19:00 1,6 C 98 % 1030,9 hPa 0,0 l/m SW 0,00 h 0 W/m 7,2 km/h (2 Bft)
18.12.2016 20:00 1,2 C 98 % 1030,8 hPa 0,0 l/m NO 0,00 h 0 W/m 10,2 km/h (2 Bft)
18.12.2016 21:00 0,9 C 98 % 1030,5 hPa 0,0 l/m NO 0,00 h 0 W/m 7,4 km/h (2 Bft)
18.12.2016 22:00 0,9 C 98 % 1030,3 hPa 0,0 l/m NO 0,00 h 0 W/m 8,0 km/h (2 Bft)
18.12.2016 23:00 0,9 C 98 % 1029,6 hPa 0,0 l/m NO 0,00 h 0 W/m 9,3 km/h (2 Bft)
Min-Datum _ 13.12.16 14.12.16 14.12.16 - - - - 12.12.16
_ Min-Zeit 07:35 14:50 14:35 - - - - 01:20
Minimum _ -5,3 C 78 % 1024,2 hPa - - - - 0,0 km/h (0 Bft)
Max-Datum _ 14.12.16 14.12.16 17.12.16 14.12.16 - 12.12.16 12.12.16 12.12.16
_ Max-Zeit 14:50 04:25 11:20 09:30 - 11:55 12:20 00:10
Maximum _ 6,6 C 100 % 1038,8 hPa 0,4 l/m - 0,08 h 431 W/m 16,1 km/h
S-SW (3 Bft)
Durchschnitt _ 0,0 C 97 % 1029,5 hPa #1,0 l/m SW #4:35 h 68 W/m 3,6 km/h (1 Bft)